createdAt,value
2019-03-27T00:03:32.264Z,18.30
2019-03-27T00:43:49.283Z,21.70
2019-03-27T01:24:06.294Z,19.02
2019-03-27T02:04:22.841Z,20.25
2019-03-27T02:14:27.387Z,24.18
2019-03-27T02:44:40.348Z,40.15
2019-03-27T03:14:53.256Z,29.18
2019-03-27T04:15:23.286Z,27.25
2019-03-27T05:15:48.646Z,30.20
2019-03-27T06:06:08.651Z,23.22
2019-03-27T06:26:17.320Z,15.23
2019-03-27T06:56:29.627Z,22.37
2019-03-27T07:36:45.447Z,22.20
2019-03-27T07:56:53.608Z,16.10
2019-03-27T08:06:58.216Z,13.00
2019-03-27T08:17:03.135Z,11.88
2019-03-27T08:27:07.972Z,8.68
2019-03-27T08:37:12.642Z,9.25
2019-03-27T09:17:28.558Z,9.70
2019-03-27T09:47:41.226Z,9.45
2019-03-27T09:57:45.612Z,8.48
2019-03-27T10:27:58.230Z,4.15
2019-03-27T10:48:07.093Z,13.58
2019-03-27T10:58:12.104Z,4.40
2019-03-27T11:18:20.887Z,2.25
2019-03-27T11:30:42.332Z,7.10
2019-03-27T12:00:55.330Z,5.67
2019-03-27T12:21:04.141Z,8.70
2019-03-27T12:41:13.097Z,9.95
2019-03-27T13:11:25.635Z,8.83
2019-03-27T14:11:50.650Z,10.95
2019-03-27T14:21:55.376Z,7.67
2019-03-27T14:42:03.607Z,8.85
2019-03-27T15:02:14.304Z,17.23
2019-03-27T15:22:23.033Z,28.73
2019-03-27T15:42:31.800Z,14.87
2019-03-27T15:52:37.174Z,9.78
2019-03-27T16:02:42.138Z,11.80
2019-03-27T16:12:46.477Z,14.25
2019-03-27T16:32:56.146Z,23.90
2019-03-27T16:53:04.647Z,37.70
2019-03-27T17:03:09.222Z,43.00
2019-03-27T17:23:18.945Z,80.47
2019-03-27T17:33:24.073Z,79.27
2019-03-27T17:43:28.620Z,68.72
2019-03-27T17:53:33.270Z,86.08
2019-03-27T18:13:41.623Z,91.97
2019-03-27T18:33:51.464Z,53.30
2019-03-27T19:24:17.033Z,37.28
2019-03-27T19:34:22.096Z,35.60
2019-03-27T19:44:27.201Z,33.08
2019-03-27T20:04:35.684Z,30.37
2019-03-27T20:14:42.540Z,28.47
2019-03-27T20:24:46.686Z,33.15
2019-03-27T20:34:51.317Z,37.20
2019-03-27T21:05:04.471Z,27.27
2019-03-27T21:35:17.311Z,27.30
2019-03-27T21:55:25.723Z,26.48
2019-03-27T22:05:30.292Z,21.52
2019-03-27T22:25:39.313Z,27.58
2019-03-27T22:45:47.931Z,26.05
2019-03-27T22:55:53.323Z,29.15
